createdAt,value
2023-04-28T17:40:48.887Z,22.00
2023-04-28T17:43:17.533Z,30.30
2023-04-28T17:45:49.649Z,10.50
2023-04-28T17:48:18.493Z,24.50
2023-04-28T17:50:51.438Z,43.50
2023-04-28T17:53:19.641Z,36.00
2023-04-28T17:55:51.595Z,27.30
2023-04-28T17:58:20.304Z,35.90
2023-04-28T18:00:49.217Z,20.10
2023-04-28T18:03:17.363Z,16.30
2023-04-28T18:06:06.420Z,8.00
2023-04-28T18:08:35.450Z,7.10
2023-04-28T18:11:11.303Z,7.40
2023-04-28T18:13:39.292Z,8.50
2023-04-28T18:16:14.176Z,5.90
2023-04-28T18:18:44.853Z,5.30
2023-04-28T18:21:15.176Z,6.80
2023-04-28T18:23:43.188Z,6.70
2023-04-28T18:26:13.132Z,6.60
2023-04-28T18:28:41.269Z,6.30
2023-04-28T18:31:11.349Z,5.60
2023-04-28T18:33:39.428Z,6.00
2023-04-28T18:36:09.242Z,7.70
2023-04-28T18:38:37.341Z,7.10
2023-04-28T18:41:14.339Z,4.80
2023-04-28T18:43:43.059Z,4.60
2023-04-28T18:46:11.655Z,3.80
2023-04-28T18:48:40.416Z,6.10
2023-04-28T18:51:08.613Z,4.90
2023-04-28T18:53:37.096Z,5.60
2023-04-28T18:56:06.759Z,6.60
2023-04-28T18:58:37.363Z,6.20
2023-04-28T19:01:09.276Z,5.70
2023-04-28T19:03:37.954Z,5.40
2023-04-28T19:06:12.273Z,5.70
2023-04-28T19:08:40.543Z,5.50
2023-04-28T19:11:28.819Z,5.10
2023-04-28T19:13:57.743Z,4.10
2023-04-28T19:16:33.519Z,4.70
2023-04-28T19:19:01.871Z,4.70
2023-04-28T19:21:46.109Z,3.60
2023-04-28T19:24:14.377Z,3.30
2023-04-28T19:27:01.392Z,5.50
2023-04-28T19:29:29.408Z,4.00
2023-04-28T19:32:17.938Z,5.10
2023-04-28T19:34:45.992Z,4.00
2023-04-28T19:37:15.917Z,4.20
2023-04-28T19:39:44.721Z,4.90
2023-04-28T19:42:33.366Z,4.60
2023-04-28T19:45:01.440Z,4.40
2023-04-28T19:47:38.131Z,3.70
2023-04-28T19:50:07.067Z,3.60
2023-04-28T19:52:35.311Z,4.40
2023-04-28T19:55:04.220Z,4.30
2023-04-28T19:57:32.251Z,4.40
2023-04-28T20:00:00.940Z,4.60
2023-04-28T20:02:48.890Z,4.90
2023-04-28T20:05:17.018Z,4.30
2023-04-28T20:08:01.247Z,4.10
2023-04-28T20:10:29.412Z,4.40
2023-04-28T20:13:01.879Z,4.10
2023-04-28T20:15:29.830Z,4.20
2023-04-28T20:18:00.395Z,4.00
2023-04-28T20:20:28.974Z,4.20
2023-04-28T20:23:17.016Z,4.50
2023-04-28T20:25:47.186Z,4.60
2023-04-28T20:28:35.328Z,5.00
2023-04-28T20:31:03.376Z,4.30
2023-04-28T20:33:35.427Z,4.20
2023-04-28T20:36:04.129Z,4.30
2023-04-28T20:38:37.599Z,6.30
2023-04-28T20:41:07.890Z,4.90
2023-04-28T20:43:55.945Z,5.00
2023-04-28T20:46:23.968Z,4.70
2023-04-28T20:48:52.185Z,4.60
2023-04-28T20:51:20.196Z,4.60
2023-04-28T20:54:08.203Z,4.70
2023-04-28T20:56:36.216Z,6.70
2023-04-28T20:59:12.138Z,5.10
2023-04-28T21:01:41.240Z,4.80
2023-04-28T21:04:25.876Z,5.20
2023-04-28T21:06:53.859Z,4.80
2023-04-28T21:09:42.383Z,4.70
2023-04-28T21:12:18.115Z,6.00
2023-04-28T21:14:46.116Z,5.20
2023-04-28T21:17:15.326Z,4.40
2023-04-28T21:20:36.628Z,4.90
2023-04-28T21:23:21.100Z,3.60
2023-04-28T21:25:49.081Z,4.50
2023-04-28T21:28:21.441Z,4.70
2023-04-28T21:30:51.779Z,4.00
2023-04-28T21:33:22.704Z,5.40
2023-04-28T21:35:50.762Z,4.60
2023-04-28T21:38:18.882Z,4.60
2023-04-28T21:40:47.151Z,4.00
2023-04-28T21:43:20.139Z,4.70
2023-04-28T21:45:48.138Z,4.40
2023-04-28T21:48:18.687Z,3.80
2023-04-28T21:50:47.631Z,4.50
2023-04-28T21:53:18.601Z,5.90
2023-04-28T21:55:47.660Z,5.00
2023-04-28T21:58:17.808Z,5.10
2023-04-28T22:00:48.807Z,5.10
2023-04-28T22:03:20.813Z,5.50
2023-04-28T22:05:48.945Z,5.00
2023-04-28T22:08:19.005Z,5.10
2023-04-28T22:10:47.071Z,4.90
2023-04-28T22:13:20.566Z,5.40
2023-04-28T22:15:48.658Z,4.40
2023-04-28T22:18:27.565Z,5.70
2023-04-28T22:20:55.595Z,5.30
2023-04-28T22:23:25.760Z,5.30
2023-04-28T22:25:53.856Z,4.80
2023-04-28T22:28:30.358Z,4.00
2023-04-28T22:30:58.341Z,4.70
2023-04-28T22:33:30.339Z,4.60
2023-04-28T22:35:58.630Z,4.70
2023-04-28T22:38:30.467Z,4.10
2023-04-28T22:40:58.494Z,4.00
2023-04-28T22:43:54.005Z,4.10
2023-04-28T22:46:22.283Z,3.80
2023-04-28T22:49:06.137Z,4.90
2023-04-28T22:51:35.802Z,4.50
2023-04-28T22:54:23.728Z,3.80
2023-04-28T22:56:53.376Z,3.60
2023-04-28T22:59:23.923Z,3.80
2023-04-28T23:01:52.363Z,4.20
2023-04-28T23:04:36.312Z,4.40
2023-04-28T23:07:04.464Z,3.80
2023-04-28T23:09:52.579Z,4.00
2023-04-28T23:12:21.446Z,4.30
2023-04-28T23:14:53.196Z,5.30
2023-04-28T23:17:21.645Z,4.40
2023-04-28T23:20:05.848Z,4.40
2023-04-28T23:22:33.852Z,4.00
2023-04-28T23:25:06.352Z,4.30
2023-04-28T23:27:34.370Z,4.20
2023-04-28T23:30:04.286Z,4.80
2023-04-28T23:32:32.329Z,4.60
2023-04-28T23:35:03.196Z,4.10
2023-04-28T23:37:31.160Z,4.40
2023-04-28T23:40:19.114Z,4.70
2023-04-28T23:42:47.068Z,3.80
2023-04-28T23:45:19.740Z,4.00
2023-04-28T23:47:48.041Z,3.30
2023-04-28T23:50:18.967Z,3.10
2023-04-28T23:52:47.378Z,4.10
2023-04-28T23:55:19.143Z,3.90
2023-04-28T23:57:47.125Z,4.10
